Time;durP1;ratioP1;P1;durP2;ratioP2;P2;SDS_P1;SDS_P2;PMS_P1;PMS_P2;Temp;Humidity;BMP_temperature;BMP_pressure;BME280_temperature;BME280_humidity;BME280_pressure;Samples;Min_cycle;Max_cycle;Signal;HPM_P1;HPM_P2
2023/01/09 00:02:43;;;;;;;7.03;1.75;;;8.80;68.40;;;;;;4998723;28;20111;-81
2023/01/09 00:05:27;;;;;;;6.13;2.35;;;8.80;68.40;;;;;;5010738;28;20106;-82
2023/01/09 00:08:12;;;;;;;4.15;2.05;;;8.80;68.50;;;;;;5001930;28;20243;-83
2023/01/09 00:10:57;;;;;;;6.63;2.47;;;8.70;68.30;;;;;;5001548;28;20052;-81
2023/01/09 00:13:41;;;;;;;6.38;2.30;;;8.70;68.30;;;;;;5012623;28;20185;-80
2023/01/09 00:16:26;;;;;;;7.65;2.50;;;8.70;68.40;;;;;;5012863;28;20037;-80
2023/01/09 00:19:11;;;;;;;11.45;2.65;;;8.70;68.40;;;;;;5004563;28;20096;-82
2023/01/09 00:21:56;;;;;;;6.10;2.45;;;8.70;68.50;;;;;;5013371;28;20116;-82
2023/01/09 00:24:40;;;;;;;8.65;2.88;;;8.70;68.50;;;;;;5009462;28;20040;-83
2023/01/09 00:27:25;;;;;;;10.98;3.03;;;8.60;68.30;;;;;;5011279;28;20048;-83
2023/01/09 00:30:10;;;;;;;5.55;2.70;;;8.60;68.30;;;;;;5011153;28;20504;-85
2023/01/09 00:32:55;;;;;;;6.07;3.80;;;8.60;68.40;;;;;;5024332;28;20088;-84
2023/01/09 00:35:40;;;;;;;9.73;2.80;;;8.60;68.50;;;;;;5003515;28;20053;-84
2023/01/09 00:38:24;;;;;;;7.18;3.65;;;8.60;68.50;;;;;;5008538;28;20079;-83
2023/01/09 00:41:14;;;;;;;6.38;2.72;;;8.60;68.50;;;;;;5009753;28;20049;-83
2023/01/09 00:44:06;;;;;;;8.65;3.15;;;8.60;69.10;;;;;;4996257;28;20044;-82
2023/01/09 00:46:56;;;;;;;11.85;3.00;;;8.60;68.60;;;;;;4998073;28;20137;-82
2023/01/09 00:49:41;;;;;;;6.82;2.83;;;8.60;68.60;;;;;;5005234;28;20164;-83
2023/01/09 00:52:29;;;;;;;8.63;2.63;;;8.60;68.60;;;;;;5016659;28;20072;-81
2023/01/09 00:55:14;;;;;;;7.40;2.30;;;8.50;68.50;;;;;;5015839;28;20080;-82
2023/01/09 00:57:58;;;;;;;7.43;2.65;;;8.50;68.50;;;;;;5010850;28;20045;-81
2023/01/09 01:00:43;;;;;;;14.35;3.38;;;8.50;68.50;;;;;;5020464;28;20058;-81
2023/01/09 01:03:28;;;;;;;7.00;2.47;;;8.50;68.50;;;;;;5016909;28;20048;-81
2023/01/09 01:09:16;;;;;;;6.93;2.60;;;8.50;68.60;;;;;;5007497;28;20647;-80
2023/01/09 01:12:05;;;;;;;8.27;2.33;;;8.50;68.60;;;;;;5002384;28;20091;-81
2023/01/09 01:14:52;;;;;;;7.97;2.78;;;8.50;68.60;;;;;;5001426;28;20076;-80
2023/01/09 01:17:38;;;;;;;6.95;2.33;;;8.50;68.70;;;;;;5011045;28;20036;-81
2023/01/09 01:20:22;;;;;;;4.57;1.60;;;8.50;68.60;;;;;;5006867;28;20077;-80
2023/01/09 01:23:07;;;;;;;4.78;1.75;;;8.50;68.70;;;;;;5000024;28;20049;-80
2023/01/09 01:25:52;;;;;;;12.02;1.90;;;8.60;68.80;;;;;;5006888;28;20099;-80
2023/01/09 01:28:37;;;;;;;7.72;2.08;;;8.60;68.80;;;;;;5003248;28;20151;-80
2023/01/09 01:31:21;;;;;;;8.35;2.20;;;8.60;68.90;;;;;;4995213;28;20517;-81
2023/01/09 01:34:06;;;;;;;5.07;2.10;;;8.60;68.90;;;;;;5008998;28;20045;-82
2023/01/09 01:36:51;;;;;;;8.98;2.83;;;8.60;68.90;;;;;;5004221;28;20041;-82
2023/01/09 01:39:36;;;;;;;8.88;1.90;;;8.60;68.90;;;;;;5004193;28;20049;-82
2023/01/09 01:42:20;;;;;;;3.83;1.48;;;8.60;68.90;;;;;;5006239;28;20040;-82
2023/01/09 01:45:29;;;;;;;6.57;1.63;;;8.60;69.40;;;;;;5006556;28;20401;-82
2023/01/09 01:48:18;;;;;;;7.80;2.22;;;8.60;68.90;;;;;;4994142;28;20115;-82
2023/01/09 01:51:05;;;;;;;10.35;1.90;;;8.70;69.00;;;;;;4999124;28;20069;-81
2023/01/09 01:53:56;;;;;;;6.50;1.80;;;8.60;68.80;;;;;;5002107;28;20100;-81
2023/01/09 01:56:52;;;;;;;7.93;1.85;;;8.70;69.10;;;;;;5001807;28;20095;-81
2023/01/09 01:59:57;;;;;;;9.80;2.33;;;8.70;69.00;;;;;;5006097;28;20088;-81
2023/01/09 02:02:44;;;;;;;8.73;2.38;;;8.60;68.90;;;;;;5003800;28;20389;-81
2023/01/09 02:05:30;;;;;;;9.45;2.15;;;8.60;68.90;;;;;;5008297;28;20093;-82
2023/01/09 02:08:16;;;;;;;12.18;2.05;;;8.60;68.90;;;;;;4999047;28;20089;-81
2023/01/09 02:11:03;;;;;;;8.20;1.90;;;8.60;69.00;;;;;;5014582;28;20092;-81
2023/01/09 02:13:47;;;;;;;8.70;2.47;;;8.60;69.00;;;;;;5008892;28;20357;-81
2023/01/09 02:17:10;;;;;;;7.47;2.10;;;8.60;69.00;;;;;;5012208;28;20044;-82
2023/01/09 02:20:43;;;;;;;10.57;2.38;;;8.60;69.10;;;;;;5007524;28;20100;-84
2023/01/09 02:23:55;;;;;;;11.90;2.58;;;8.60;69.00;;;;;;5014985;28;20460;-83
2023/01/09 02:27:05;;;;;;;13.00;3.70;;;8.60;69.10;;;;;;5018273;28;20060;-82
2023/01/09 02:30:02;;;;;;;7.88;2.85;;;8.50;68.90;;;;;;5004896;28;20085;-83
2023/01/09 02:33:05;;;;;;;13.48;2.50;;;8.60;69.10;;;;;;5000136;28;20053;-82
2023/01/09 02:36:04;;;;;;;13.50;1.80;;;8.60;69.20;;;;;;5006313;28;20068;-81
2023/01/09 02:39:17;;;;;;;9.27;2.33;;;8.60;69.20;;;;;;5019564;28;20040;-82
2023/01/09 02:42:10;;;;;;;12.32;2.42;;;8.60;69.20;;;;;;5009763;28;20091;-83
2023/01/09 02:44:55;;;;;;;8.07;2.00;;;8.60;69.20;;;;;;4985075;28;20037;-82
2023/01/09 02:47:42;;;;;;;11.77;2.60;;;8.60;69.20;;;;;;5019242;28;20060;-82
2023/01/09 02:50:46;;;;;;;10.38;2.08;;;8.60;69.10;;;;;;5003025;28;20057;-81
2023/01/09 02:53:49;;;;;;;9.70;1.80;;;8.60;69.20;;;;;;5002456;28;20095;-82
2023/01/09 02:57:10;;;;;;;5.78;2.53;;;8.60;69.10;;;;;;4993855;28;20107;-81
2023/01/09 03:00:25;;;;;;;7.07;2.70;;;8.60;69.20;;;;;;5008982;28;20029;-82
2023/01/09 03:03:39;;;;;;;10.95;2.10;;;8.60;69.20;;;;;;5004219;28;20516;-83
2023/01/09 03:06:57;;;;;;;8.32;1.95;;;8.60;69.10;;;;;;5001838;28;20055;-81
2023/01/09 03:09:44;;;;;;;7.20;2.67;;;8.60;69.20;;;;;;5007046;28;20482;-82
2023/01/09 03:12:31;;;;;;;6.47;1.88;;;8.60;69.20;;;;;;5008420;28;20476;-82
2023/01/09 03:15:19;;;;;;;11.35;2.40;;;8.50;69.10;;;;;;5008657;28;20048;-81
2023/01/09 03:18:06;;;;;;;3.78;1.65;;;8.60;69.20;;;;;;5006219;28;20045;-82
2023/01/09 03:20:52;;;;;;;8.25;2.13;;;8.60;69.20;;;;;;5004963;28;20069;-82
2023/01/09 03:23:57;;;;;;;10.90;2.63;;;8.50;69.10;;;;;;5000171;28;20068;-81
2023/01/09 03:26:42;;;;;;;6.68;1.95;;;8.50;69.10;;;;;;5013497;28;20092;-80
2023/01/09 03:29:26;;;;;;;7.50;1.73;;;8.50;69.10;;;;;;5016409;28;20056;-80
2023/01/09 03:32:11;;;;;;;8.65;1.88;;;8.50;69.10;;;;;;5003721;28;20104;-81
2023/01/09 03:34:55;;;;;;;10.27;2.53;;;8.50;69.10;;;;;;5009152;28;20033;-80
2023/01/09 03:37:40;;;;;;;8.32;2.22;;;8.50;69.10;;;;;;5003821;28;20457;-80
2023/01/09 03:40:25;;;;;;;11.73;2.28;;;8.50;69.10;;;;;;5001848;28;20113;-80
2023/01/09 03:43:09;;;;;;;6.45;1.95;;;8.50;69.10;;;;;;5006846;28;20121;-80
2023/01/09 03:45:55;;;;;;;7.97;2.13;;;8.50;69.10;;;;;;4997182;28;20029;-81
2023/01/09 03:48:39;;;;;;;11.48;3.25;;;8.50;69.10;;;;;;5004925;28;20052;-81
2023/01/09 03:51:23;;;;;;;7.25;1.77;;;8.40;68.90;;;;;;5009911;28;20060;-81
2023/01/09 03:54:08;;;;;;;11.00;2.90;;;8.40;68.90;;;;;;4967969;28;1117600;-81
2023/01/09 03:56:53;;;;;;;5.88;1.80;;;8.40;68.90;;;;;;5003394;28;20048;-80
2023/01/09 03:59:38;;;;;;;10.60;3.10;;;8.40;68.90;;;;;;5017245;28;20161;-83
2023/01/09 04:02:23;;;;;;;12.10;3.53;;;8.40;68.90;;;;;;5001294;28;20404;-82
2023/01/09 04:05:07;;;;;;;8.27;2.22;;;8.40;68.90;;;;;;5010107;28;20068;-82
2023/01/09 04:07:52;;;;;;;6.97;2.20;;;8.40;69.00;;;;;;5001767;28;20057;-82
2023/01/09 04:10:36;;;;;;;7.43;2.08;;;8.30;68.80;;;;;;5000541;28;20080;-82
2023/01/09 04:13:21;;;;;;;6.20;1.85;;;8.30;68.80;;;;;;5008169;28;20086;-82
2023/01/09 04:16:06;;;;;;;12.32;2.95;;;8.30;68.90;;;;;;5020980;28;20511;-83
2023/01/09 04:18:51;;;;;;;8.32;3.10;;;8.30;68.90;;;;;;5009660;28;20032;-81
2023/01/09 04:21:35;;;;;;;6.85;2.05;;;8.30;68.90;;;;;;5004248;28;20029;-81
2023/01/09 04:24:20;;;;;;;4.22;1.80;;;8.30;68.90;;;;;;5007610;28;20040;-82
2023/01/09 04:27:05;;;;;;;7.47;1.88;;;8.30;68.90;;;;;;4996898;28;20437;-82
2023/01/09 04:29:50;;;;;;;8.02;2.08;;;8.20;68.70;;;;;;5007804;28;20053;-84
2023/01/09 04:32:34;;;;;;;9.55;2.22;;;8.20;68.80;;;;;;5013221;28;20033;-83
2023/01/09 04:35:19;;;;;;;10.13;3.38;;;8.20;68.80;;;;;;5002860;28;20041;-84
2023/01/09 04:38:03;;;;;;;11.15;2.42;;;8.20;68.80;;;;;;5008276;28;20040;-82
2023/01/09 04:40:48;;;;;;;6.88;2.67;;;8.20;68.80;;;;;;4992763;28;20041;-83
2023/01/09 04:43:33;;;;;;;7.80;2.33;;;8.20;68.80;;;;;;5003085;28;20045;-83
2023/01/09 04:46:17;;;;;;;7.85;2.00;;;8.10;68.60;;;;;;4999862;28;20107;-83
2023/01/09 04:49:02;;;;;;;11.98;2.15;;;8.10;68.60;;;;;;5011156;28;20330;-83
2023/01/09 04:51:47;;;;;;;7.47;1.80;;;8.10;68.60;;;;;;5004859;28;20177;-83
2023/01/09 04:54:33;;;;;;;11.13;2.40;;;8.10;68.60;;;;;;5003274;28;20061;-82
2023/01/09 04:57:18;;;;;;;10.68;2.10;;;8.10;68.60;;;;;;5004413;28;20114;-83
2023/01/09 05:00:08;;;;;;;10.13;2.15;;;8.10;68.60;;;;;;5008144;28;20096;-83
2023/01/09 05:02:52;;;;;;;8.75;1.77;;;8.10;68.60;;;;;;5002151;28;20064;-82
2023/01/09 05:05:37;;;;;;;15.18;2.67;;;8.00;68.50;;;;;;5012469;28;20041;-83
2023/01/09 05:08:22;;;;;;;9.20;2.63;;;8.00;68.50;;;;;;5005016;28;20402;-83
2023/01/09 05:11:06;;;;;;;9.13;2.33;;;8.00;68.50;;;;;;4999749;28;20084;-85
2023/01/09 05:13:52;;;;;;;7.03;2.35;;;8.00;68.50;;;;;;4999514;28;20133;-83
2023/01/09 05:16:37;;;;;;;10.00;2.40;;;7.90;68.40;;;;;;5009351;28;20097;-82
2023/01/09 05:19:22;;;;;;;15.95;3.38;;;8.00;68.60;;;;;;5005159;28;20044;-84
2023/01/09 05:22:07;;;;;;;9.77;2.08;;;7.90;68.40;;;;;;5010538;28;20493;-82
2023/01/09 05:24:52;;;;;;;13.15;2.60;;;7.90;68.40;;;;;;5005490;28;20124;-83
2023/01/09 05:27:36;;;;;;;9.63;2.72;;;7.90;68.40;;;;;;5012528;28;20665;-83
2023/01/09 05:30:21;;;;;;;14.00;1.92;;;8.00;68.60;;;;;;5002545;28;20590;-83
2023/01/09 05:33:06;;;;;;;6.75;3.13;;;7.90;68.30;;;;;;5011067;28;20520;-82
2023/01/09 05:35:50;;;;;;;11.85;2.88;;;8.00;68.50;;;;;;5011703;28;20095;-81
2023/01/09 05:38:36;;;;;;;7.82;2.03;;;8.00;68.50;;;;;;5003743;28;20100;-82
2023/01/09 05:41:21;;;;;;;8.85;2.13;;;8.00;68.50;;;;;;5008710;28;20512;-83
2023/01/09 05:44:05;;;;;;;9.38;2.20;;;8.10;68.50;;;;;;5002434;28;20049;-83
2023/01/09 05:46:50;;;;;;;10.80;2.15;;;8.10;68.50;;;;;;5003428;28;20049;-83
2023/01/09 05:49:35;;;;;;;9.55;1.65;;;8.10;68.50;;;;;;4999893;28;20105;-83
2023/01/09 05:52:19;;;;;;;5.10;1.80;;;8.10;68.40;;;;;;5006143;28;20045;-81
2023/01/09 05:55:06;;;;;;;11.30;2.15;;;8.10;68.30;;;;;;5005352;28;20107;-83
2023/01/09 05:57:50;;;;;;;11.25;2.55;;;8.20;68.50;;;;;;5011775;28;20595;-85
2023/01/09 06:00:34;;;;;;;6.28;2.00;;;8.20;68.50;;;;;;5011749;28;20531;-84
2023/01/09 06:03:19;;;;;;;8.88;2.15;;;8.20;68.50;;;;;;5008297;28;20061;-84
2023/01/09 06:06:04;;;;;;;11.02;2.50;;;8.20;68.50;;;;;;5011736;28;20148;-83
2023/01/09 06:08:48;;;;;;;6.78;1.88;;;8.20;68.50;;;;;;5010508;28;20103;-83
2023/01/09 06:11:37;;;;;;;8.15;1.98;;;8.20;68.50;;;;;;5011226;28;20720;-83
2023/01/09 06:14:22;;;;;;;7.82;2.53;;;8.30;68.60;;;;;;5007190;28;20040;-83
2023/01/09 06:17:06;;;;;;;10.07;2.30;;;8.30;68.60;;;;;;5006021;28;20119;-84
2023/01/09 06:19:51;;;;;;;11.38;2.50;;;8.30;68.60;;;;;;5001166;28;20091;-83
2023/01/09 06:22:36;;;;;;;6.70;1.98;;;8.30;68.50;;;;;;5018340;28;20107;-82
2023/01/09 06:25:20;;;;;;;6.75;1.65;;;8.30;68.50;;;;;;5019038;28;20084;-81
2023/01/09 06:28:05;;;;;;;8.63;2.08;;;8.30;68.50;;;;;;5005529;28;20048;-82
2023/01/09 06:30:51;;;;;;;9.65;2.25;;;8.40;68.70;;;;;;5002270;28;20126;-82
2023/01/09 06:33:35;;;;;;;6.75;1.70;;;8.40;68.60;;;;;;5002375;28;20044;-83
2023/01/09 06:36:20;;;;;;;6.95;2.13;;;8.40;68.60;;;;;;5011907;28;20041;-82
2023/01/09 06:39:04;;;;;;;6.00;2.03;;;8.40;68.60;;;;;;5005242;28;20038;-83
2023/01/09 06:41:49;;;;;;;8.32;2.35;;;8.50;68.70;;;;;;5001063;28;20042;-83
2023/01/09 06:44:35;;;;;;;6.70;2.47;;;8.50;68.70;;;;;;5008395;28;20048;-84
2023/01/09 06:47:20;;;;;;;6.60;1.92;;;8.60;68.90;;;;;;5005921;28;20044;-81
2023/01/09 06:50:06;;;;;;;7.10;1.95;;;8.60;68.80;;;;;;5010663;28;20096;-85
2023/01/09 06:52:50;;;;;;;8.50;2.20;;;8.60;68.80;;;;;;5000316;28;20128;-86
2023/01/09 06:55:35;;;;;;;8.75;2.33;;;8.60;68.80;;;;;;5007439;28;20110;-88
2023/01/09 06:58:20;;;;;;;7.07;1.73;;;8.70;69.00;;;;;;5005625;28;20048;-86
2023/01/09 07:01:04;;;;;;;6.00;1.67;;;8.60;68.70;;;;;;5001778;28;20048;-89
2023/01/09 07:03:49;;;;;;;9.02;1.70;;;8.60;68.70;;;;;;5000357;28;20073;-86
2023/01/09 07:06:33;;;;;;;10.13;1.52;;;8.70;68.90;;;;;;5000612;28;20069;-81
2023/01/09 07:09:18;;;;;;;7.85;1.92;;;8.70;68.90;;;;;;5008241;28;20044;-83
2023/01/09 07:12:04;;;;;;;5.47;1.45;;;8.70;69.20;;;;;;5015802;28;20156;-87
2023/01/09 07:14:48;;;;;;;8.25;1.50;;;8.70;68.90;;;;;;5018132;28;20049;-87
2023/01/09 07:17:33;;;;;;;8.30;1.75;;;8.70;69.00;;;;;;5009713;28;20776;-85
2023/01/09 07:20:18;;;;;;;5.57;1.35;;;8.70;69.00;;;;;;5005746;28;20038;-86
2023/01/09 07:23:04;;;;;;;3.80;1.23;;;8.70;69.00;;;;;;5011473;28;20085;-87
2023/01/09 07:25:50;;;;;;;7.30;1.30;;;8.70;69.00;;;;;;5010734;28;20113;-89
2023/01/09 07:28:35;;;;;;;5.50;1.75;;;8.80;69.10;;;;;;5012764;28;20540;-90
2023/01/09 07:31:19;;;;;;;4.72;2.10;;;8.80;69.10;;;;;;5005237;28;20124;-81
2023/01/09 07:34:04;;;;;;;6.95;1.60;;;8.90;69.40;;;;;;5011744;28;20045;-82
2023/01/09 07:36:50;;;;;;;5.25;1.35;;;8.90;69.50;;;;;;5004217;28;20394;-81
2023/01/09 07:39:35;;;;;;;5.38;2.15;;;8.90;69.60;;;;;;5009033;28;20103;-94
2023/01/09 07:42:19;;;;;;;7.97;2.42;;;8.90;69.50;;;;;;5014060;28;20061;-92
2023/01/09 07:45:06;;;;;;;6.13;1.80;;;8.90;69.50;;;;;;5012086;28;20057;-92
2023/01/09 07:47:51;;;;;;;9.43;2.33;;;9.00;69.70;;;;;;4998007;28;20048;-87
2023/01/09 07:50:37;;;;;;;6.47;2.13;;;9.00;69.70;;;;;;4997999;28;20632;-90
2023/01/09 07:53:21;;;;;;;7.88;2.50;;;9.00;69.70;;;;;;5002452;28;20445;-87
2023/01/09 07:56:06;;;;;;;5.50;2.08;;;9.00;69.70;;;;;;5004515;28;20092;-86
2023/01/09 07:58:51;;;;;;;6.93;1.83;;;9.00;69.70;;;;;;4999346;28;20049;-89
2023/01/09 08:01:36;;;;;;;4.43;1.40;;;9.00;69.70;;;;;;5007266;28;20091;-86
2023/01/09 08:04:21;;;;;;;6.43;1.75;;;9.00;69.70;;;;;;5006996;28;20090;-90
2023/01/09 08:07:05;;;;;;;6.78;1.65;;;9.10;70.00;;;;;;5010723;28;20056;-88
2023/01/09 08:09:50;;;;;;;4.82;1.75;;;9.10;70.20;;;;;;5025336;28;20064;-87
2023/01/09 08:12:35;;;;;;;6.28;1.63;;;9.20;70.60;;;;;;5011989;28;20037;-86
2023/01/09 08:15:19;;;;;;;6.78;1.67;;;9.30;71.00;;;;;;5012188;28;20084;-85
2023/01/09 08:18:06;;;;;;;6.63;2.15;;;9.30;71.00;;;;;;5001855;28;20105;-85
2023/01/09 08:20:50;;;;;;;8.93;1.40;;;9.40;71.10;;;;;;5006073;28;20243;-87
2023/01/09 08:23:35;;;;;;;4.35;1.27;;;9.40;71.10;;;;;;5009026;28;20611;-86
2023/01/09 08:26:20;;;;;;;5.80;1.10;;;9.50;71.40;;;;;;5030874;28;20124;-87
2023/01/09 08:29:05;;;;;;;8.57;1.73;;;9.50;71.40;;;;;;5008057;28;20037;-90
2023/01/09 08:31:49;;;;;;;7.93;1.50;;;9.50;71.40;;;;;;5015982;28;21296;-90
2023/01/09 08:34:34;;;;;;;5.22;1.42;;;9.50;71.50;;;;;;5004942;28;20318;-81
2023/01/09 08:37:19;;;;;;;11.02;1.90;;;9.50;71.50;;;;;;4997207;28;20529;-82
2023/01/09 08:40:04;;;;;;;3.75;1.23;;;9.50;71.50;;;;;;5010138;28;20084;-81
2023/01/09 08:47:04;;;;;;;3.97;1.25;;;9.60;71.70;;;;;;5000653;28;20512;-83
2023/01/09 08:49:03;;;;;;;4.05;1.40;;;9.60;71.70;;;;;;5004438;28;20312;-89
2023/01/09 08:51:47;;;;;;;4.90;1.40;;;9.60;71.80;;;;;;5002860;28;20044;-83
2023/01/09 08:54:35;;;;;;;5.18;1.80;;;9.70;72.20;;;;;;4994816;28;20068;-88
2023/01/09 08:57:20;;;;;;;8.73;1.35;;;9.70;72.30;;;;;;5000356;28;20068;-90
2023/01/09 09:00:05;;;;;;;7.30;1.48;;;9.80;72.50;;;;;;4999110;28;20685;-80
2023/01/09 09:02:51;;;;;;;8.07;1.27;;;9.90;72.70;;;;;;5018881;28;20036;-81
2023/01/09 09:05:35;;;;;;;5.82;2.00;;;10.00;72.80;;;;;;5009295;28;20072;-83
2023/01/09 09:08:20;;;;;;;4.72;1.92;;;10.00;72.80;;;;;;5011902;28;20181;-85
2023/01/09 09:11:05;;;;;;;4.10;1.17;;;10.10;72.90;;;;;;5010905;28;20089;-87
2023/01/09 09:13:49;;;;;;;5.22;1.13;;;10.10;72.90;;;;;;5008734;28;20048;-92
2023/01/09 09:16:34;;;;;;;4.50;1.33;;;10.10;72.90;;;;;;5004872;28;20068;-85
2023/01/09 09:19:18;;;;;;;5.30;0.98;;;10.20;73.10;;;;;;5007208;28;20040;-90
2023/01/09 09:22:03;;;;;;;6.07;1.45;;;10.20;73.10;;;;;;5004311;28;20191;-88
2023/01/09 09:24:47;;;;;;;7.32;1.45;;;10.30;73.70;;;;;;5008325;28;20052;-91
2023/01/09 09:27:32;;;;;;;5.80;1.38;;;10.30;73.10;;;;;;5003537;28;20088;-90
2023/01/09 09:30:18;;;;;;;5.88;1.35;;;10.40;73.20;;;;;;4999940;28;20056;-90
2023/01/09 09:33:03;;;;;;;7.00;1.20;;;10.40;73.20;;;;;;5001189;28;20044;-85
2023/01/09 09:35:48;;;;;;;6.07;1.95;;;10.50;73.20;;;;;;5000164;28;20164;-84
2023/01/09 09:38:32;;;;;;;4.80;1.63;;;10.60;73.30;;;;;;5009065;28;20044;-83
2023/01/09 09:45:14;;;;;;;6.15;1.10;;;10.80;73.40;;;;;;5000644;28;20038;-85
2023/01/09 09:48:20;;;;;;;10.07;1.33;;;10.80;73.30;;;;;;5001236;28;20076;-87
2023/01/09 09:51:28;;;;;;;5.30;1.50;;;10.90;73.10;;;;;;5008479;28;20041;-86
2023/01/09 09:54:21;;;;;;;6.32;1.27;;;11.00;73.10;;;;;;4999452;28;21006;-86
2023/01/09 09:57:13;;;;;;;7.47;1.80;;;11.10;73.10;;;;;;5009126;28;20045;-88
2023/01/09 09:59:57;;;;;;;5.97;1.33;;;11.10;73.00;;;;;;5010709;28;20052;-87
2023/01/09 10:02:49;;;;;;;5.40;1.27;;;11.20;73.10;;;;;;5011584;28;20382;-81
2023/01/09 10:05:36;;;;;;;4.10;1.35;;;11.20;73.10;;;;;;5007156;28;20053;-80
2023/01/09 10:08:50;;;;;;;5.95;1.63;;;11.40;73.70;;;;;;5012357;28;20080;-87
2023/01/09 10:11:57;;;;;;;5.88;1.55;;;11.60;73.90;;;;;;5001623;28;20052;-87
2023/01/09 10:14:41;;;;;;;5.38;1.50;;;11.90;73.70;;;;;;5005720;28;20045;-82
2023/01/09 10:17:51;;;;;;;4.57;1.30;;;12.00;73.50;;;;;;5007880;28;20088;-79
2023/01/09 10:21:09;;;;;;;3.22;1.35;;;12.00;73.20;;;;;;4999353;28;20052;-81
2023/01/09 10:24:28;;;;;;;5.30;1.63;;;12.00;73.00;;;;;;5007436;28;20076;-77
2023/01/09 10:27:27;;;;;;;7.03;1.65;;;12.00;72.90;;;;;;5009166;28;20385;-80
2023/01/09 10:30:36;;;;;;;8.45;2.33;;;11.90;73.30;;;;;;5014563;28;20426;-81
2023/01/09 10:33:34;;;;;;;7.22;1.30;;;11.80;72.30;;;;;;5011506;28;20047;-80
2023/01/09 10:36:38;;;;;;;7.57;1.80;;;11.80;72.30;;;;;;5004831;28;20069;-89
2023/01/09 10:39:40;;;;;;;5.20;1.50;;;11.70;72.20;;;;;;5021247;28;20064;-83
2023/01/09 10:42:30;;;;;;;8.90;1.33;;;11.70;72.20;;;;;;5016302;28;20056;-88
2023/01/09 10:45:30;;;;;;;6.07;1.52;;;11.60;72.00;;;;;;5001247;28;20045;-81
2023/01/09 10:48:35;;;;;;;6.43;1.23;;;11.60;71.90;;;;;;5003372;28;20087;-82
2023/01/09 10:52:11;;;;;;;7.50;1.60;;;11.60;71.80;;;;;;4992708;28;20146;-90
2023/01/09 10:55:24;;;;;;;6.63;1.42;;;11.40;71.40;;;;;;5000991;28;20053;-90
2023/01/09 10:58:20;;;;;;;5.30;1.50;;;11.40;71.60;;;;;;5007047;28;20516;-88
2023/01/09 11:01:04;;;;;;;7.63;1.63;;;11.30;71.30;;;;;;5001353;28;20029;-87
2023/01/09 11:03:49;;;;;;;9.85;2.20;;;11.30;71.30;;;;;;5010678;28;20477;-86
2023/01/09 11:06:49;;;;;;;8.05;2.20;;;11.30;71.30;;;;;;5010403;28;20048;-85
2023/01/09 11:10:03;;;;;;;8.38;1.95;;;11.30;71.10;;;;;;5006847;28;20087;-87
2023/01/09 11:12:48;;;;;;;6.72;1.77;;;11.30;71.10;;;;;;5012942;28;20041;-88
2023/01/09 11:15:35;;;;;;;11.65;2.20;;;11.20;70.90;;;;;;5008049;28;20049;-95
2023/01/09 11:18:23;;;;;;;8.25;2.35;;;11.20;70.90;;;;;;5021123;28;20057;-95
2023/01/09 11:21:39;;;;;;;6.13;1.92;;;11.20;70.80;;;;;;5007029;28;20323;-94
2023/01/09 11:24:28;;;;;;;9.18;1.65;;;11.20;70.70;;;;;;5018461;28;20041;-90
2023/01/09 11:27:12;;;;;;;6.35;2.70;;;11.20;70.70;;;;;;5005005;28;20127;-89
2023/01/09 11:30:15;;;;;;;6.72;2.22;;;11.20;70.70;;;;;;5014943;28;20069;-86
2023/01/09 11:32:59;;;;;;;5.18;1.50;;;11.20;70.60;;;;;;5028704;28;20052;-90
2023/01/09 11:36:09;;;;;;;5.22;1.80;;;11.20;70.70;;;;;;5012630;28;20049;-85
2023/01/09 11:38:59;;;;;;;8.05;1.90;;;11.20;70.60;;;;;;5005499;28;20115;-88
2023/01/09 11:41:43;;;;;;;6.82;2.08;;;11.20;70.60;;;;;;5007336;28;20101;-91
2023/01/09 11:44:30;;;;;;;9.95;3.10;;;11.30;70.70;;;;;;5020566;28;20041;-90
2023/01/09 11:47:39;;;;;;;8.85;2.20;;;11.30;70.70;;;;;;5008726;28;20519;-89
2023/01/09 11:50:28;;;;;;;7.93;2.00;;;11.30;70.60;;;;;;5024796;28;20053;-91
2023/01/09 11:53:18;;;;;;;5.30;1.95;;;11.30;70.50;;;;;;5022838;28;20096;-89
2023/01/09 11:56:03;;;;;;;9.32;2.15;;;11.40;70.50;;;;;;5012133;28;20563;-88
2023/01/09 11:58:48;;;;;;;7.75;1.73;;;11.40;70.50;;;;;;5021831;28;20049;-91
2023/01/09 12:01:51;;;;;;;7.93;2.00;;;11.40;70.40;;;;;;5030197;28;20044;-88
2023/01/09 12:04:54;;;;;;;7.45;2.05;;;11.40;70.30;;;;;;5030858;28;20125;-89
2023/01/09 12:07:53;;;;;;;7.35;2.17;;;11.40;70.20;;;;;;5017346;28;20064;-93
2023/01/09 12:10:47;;;;;;;8.20;2.90;;;11.40;70.20;;;;;;5017822;28;20072;-93
2023/01/09 12:14:00;;;;;;;11.23;2.67;;;11.30;69.90;;;;;;5023113;28;20032;-90
2023/01/09 12:17:10;;;;;;;12.48;3.40;;;11.40;70.50;;;;;;5021662;28;20037;-92
2023/01/09 12:20:29;;;;;;;11.77;2.45;;;11.60;71.40;;;;;;5031501;28;20784;-95
2023/01/09 12:23:22;;;;;;;8.88;2.53;;;11.90;71.40;;;;;;5038567;28;20088;-81
2023/01/09 12:26:15;;;;;;;13.10;2.50;;;12.00;71.00;;;;;;5017440;28;20478;-81
2023/01/09 12:28:59;;;;;;;8.68;2.10;;;12.00;70.70;;;;;;5032088;28;20631;-93
2023/01/09 12:32:08;;;;;;;10.40;3.00;;;12.10;70.70;;;;;;5034717;28;20048;-94
2023/01/09 12:35:04;;;;;;;9.75;2.90;;;12.10;70.60;;;;;;5010156;28;20154;-84
2023/01/09 12:38:06;;;;;;;11.55;2.88;;;12.00;70.30;;;;;;5008862;28;20416;-88
2023/01/09 12:41:21;;;;;;;16.05;4.93;;;12.00;70.30;;;;;;5011281;28;20044;-89
2023/01/09 12:44:44;;;;;;;9.90;2.17;;;12.00;70.20;;;;;;5008683;28;20542;-88
2023/01/09 12:47:42;;;;;;;12.77;2.85;;;12.00;70.20;;;;;;5001991;28;20069;-90
2023/01/09 12:50:33;;;;;;;7.97;3.03;;;11.90;70.10;;;;;;5017573;28;20137;-87
2023/01/09 12:53:41;;;;;;;7.80;2.53;;;11.90;70.00;;;;;;5013730;28;20088;-87
2023/01/09 12:56:34;;;;;;;10.23;2.15;;;11.90;69.90;;;;;;5015738;28;20045;-85
2023/01/09 12:59:42;;;;;;;9.90;2.60;;;11.80;69.80;;;;;;5018549;28;20114;-84
2023/01/09 13:02:47;;;;;;;8.25;2.70;;;11.80;69.80;;;;;;5008227;28;20420;-80
2023/01/09 13:05:41;;;;;;;11.77;2.90;;;11.80;69.80;;;;;;5019254;28;20243;-83
2023/01/09 13:08:30;;;;;;;8.52;2.13;;;11.80;69.80;;;;;;5011891;28;20041;-83
2023/01/09 13:11:38;;;;;;;8.95;3.15;;;11.80;69.80;;;;;;5013045;28;20103;-83
2023/01/09 13:14:46;;;;;;;9.93;2.70;;;11.70;69.60;;;;;;5013785;28;20607;-85
2023/01/09 13:17:39;;;;;;;3.80;1.50;;;11.80;69.70;;;;;;5023881;28;20137;-83
2023/01/09 13:20:52;;;;;;;8.45;2.45;;;11.80;69.70;;;;;;5008700;28;20057;-85
2023/01/09 13:24:12;;;;;;;13.48;2.80;;;11.70;69.50;;;;;;5018091;28;20044;-85
2023/01/09 13:27:19;;;;;;;9.23;2.20;;;11.80;69.70;;;;;;5006737;28;20096;-83
2023/01/09 13:30:10;;;;;;;13.05;2.53;;;11.80;70.10;;;;;;5008548;28;20076;-81
2023/01/09 13:33:26;;;;;;;7.82;2.03;;;11.90;70.70;;;;;;4997675;28;20357;-82
2023/01/09 13:36:27;;;;;;;11.73;2.92;;;12.00;71.60;;;;;;5000631;28;20041;-81
2023/01/09 13:39:21;;;;;;;9.30;2.42;;;12.40;71.80;;;;;;5006722;28;20053;-82
2023/01/09 13:42:35;;;;;;;9.05;2.65;;;12.60;71.70;;;;;;5006923;28;20068;-81
2023/01/09 13:45:25;;;;;;;10.20;2.78;;;12.90;71.70;;;;;;5022006;28;20041;-87
2023/01/09 13:48:10;;;;;;;7.15;1.80;;;13.10;71.40;;;;;;5013040;28;20049;-95
2023/01/09 13:51:35;;;;;;;12.25;2.80;;;13.10;70.90;;;;;;5016112;28;20122;-89
2023/01/09 13:54:55;;;;;;;7.72;1.88;;;13.10;69.80;;;;;;5027523;28;20105;-90
2023/01/09 13:58:04;;;;;;;8.77;2.42;;;12.90;68.80;;;;;;5033129;28;20036;-85
2023/01/09 14:00:50;;;;;;;5.85;1.90;;;12.70;68.20;;;;;;5036951;28;20094;-88
2023/01/09 14:03:37;;;;;;;7.70;1.75;;;12.40;68.20;;;;;;5009523;28;20045;-90
2023/01/09 14:06:23;;;;;;;8.32;1.95;;;12.40;68.30;;;;;;5017029;28;20052;-90
2023/01/09 14:09:20;;;;;;;6.40;1.83;;;12.30;68.10;;;;;;5000780;28;20053;-88
2023/01/09 14:12:05;;;;;;;7.13;2.80;;;12.30;67.70;;;;;;5007286;28;20041;-88
2023/01/09 14:14:52;;;;;;;6.13;1.58;;;12.30;67.70;;;;;;5009659;28;20123;-89
2023/01/09 14:17:37;;;;;;;12.45;1.98;;;12.30;67.50;;;;;;5005077;28;20053;-90
2023/01/09 14:20:36;;;;;;;4.43;1.83;;;12.30;67.20;;;;;;5002829;28;20927;-78
2023/01/09 14:23:32;;;;;;;7.15;2.15;;;12.40;67.00;;;;;;4992558;28;20450;-78
2023/01/09 14:26:19;;;;;;;5.90;1.83;;;12.40;66.80;;;;;;4986953;28;20049;-83
2023/01/09 14:29:37;;;;;;;6.57;2.25;;;12.50;66.80;;;;;;5001439;28;20323;-84
2023/01/09 14:32:23;;;;;;;7.38;2.40;;;12.50;66.40;;;;;;5000190;28;20064;-85
2023/01/09 14:35:14;;;;;;;11.50;2.00;;;12.50;66.50;;;;;;5011057;28;20041;-84
2023/01/09 14:38:26;;;;;;;9.38;2.42;;;12.40;66.20;;;;;;4996246;28;20137;-78
2023/01/09 14:42:14;;;;;;;7.70;2.15;;;12.40;66.20;;;;;;4985347;28;20069;-79
2023/01/09 14:44:47;;;;;;;12.52;2.58;;;12.30;66.20;;;;;;5016952;28;20539;-80
2023/01/09 14:47:56;;;;;;;6.25;2.53;;;12.20;66.00;;;;;;4990518;28;20533;-83
2023/01/09 14:50:54;;;;;;;10.20;2.15;;;12.20;66.20;;;;;;5004217;28;20060;-82
2023/01/09 14:53:39;;;;;;;10.07;2.38;;;12.10;66.30;;;;;;5002841;28;20654;-85
2023/01/09 14:56:29;;;;;;;9.05;2.35;;;12.10;66.40;;;;;;5002988;28;20049;-83
2023/01/09 14:59:16;;;;;;;11.60;2.10;;;12.00;66.20;;;;;;4999871;28;20459;-82
2023/01/09 15:02:00;;;;;;;13.30;3.08;;;12.00;66.30;;;;;;5010588;28;20076;-80
2023/01/09 15:04:45;;;;;;;8.40;1.98;;;12.00;66.40;;;;;;5002682;28;20132;-77
2023/01/09 15:07:39;;;;;;;7.90;2.97;;;11.90;66.30;;;;;;5000372;28;20539;-78